createdAt,value
2022-10-14T00:00:10.575Z,2.00
2022-10-14T00:05:12.064Z,2.17
2022-10-14T00:10:13.512Z,1.55
2022-10-14T00:15:14.880Z,1.70
2022-10-14T00:20:16.399Z,1.83
2022-10-14T00:25:17.756Z,1.67
2022-10-14T00:30:19.175Z,2.05
2022-10-14T00:35:20.541Z,1.58
2022-10-14T00:40:21.905Z,1.50
2022-10-14T00:45:24.285Z,1.63
2022-10-14T00:50:25.802Z,1.60
2022-10-14T00:55:28.689Z,1.10
2022-10-14T01:00:30.115Z,1.27
2022-10-14T01:05:37.186Z,1.35
2022-10-14T01:11:00.413Z,0.65
2022-10-14T01:16:10.970Z,0.82
2022-10-14T01:21:17.195Z,0.63
2022-10-14T01:26:24.804Z,0.45
2022-10-14T01:31:32.431Z,0.50
2022-10-14T01:36:39.014Z,1.05
2022-10-14T01:41:46.599Z,0.90
2022-10-14T01:46:53.361Z,0.63
2022-10-14T01:52:01.689Z,0.95
2022-10-14T01:57:07.889Z,0.60
2022-10-14T02:02:12.641Z,0.47
2022-10-14T02:07:32.387Z,0.90
2022-10-14T02:12:36.661Z,0.90
2022-10-14T02:17:42.749Z,0.55
2022-10-14T02:22:51.905Z,0.60
2022-10-14T02:27:54.347Z,0.80
2022-10-14T02:32:58.630Z,1.20
2022-10-14T02:38:00.751Z,0.70
2022-10-14T02:43:02.197Z,1.10
2022-10-14T02:48:04.117Z,1.02
2022-10-14T02:53:05.655Z,0.60
2022-10-14T02:58:07.122Z,1.00
2022-10-14T03:03:08.594Z,0.75
2022-10-14T03:08:09.969Z,0.70
2022-10-14T03:13:11.401Z,1.20
2022-10-14T03:18:12.740Z,0.35
2022-10-14T03:23:14.167Z,1.50
2022-10-14T03:28:15.640Z,0.40
2022-10-14T03:33:20.434Z,0.70
2022-10-14T03:38:22.014Z,0.80
2022-10-14T03:43:23.425Z,0.77
2022-10-14T03:48:24.811Z,1.13
2022-10-14T03:53:26.217Z,1.02
2022-10-14T03:58:27.597Z,0.80
2022-10-14T04:03:29.037Z,1.05
2022-10-14T04:08:30.478Z,1.20
2022-10-14T04:13:31.946Z,1.17
2022-10-14T04:18:34.466Z,0.80
2022-10-14T04:23:36.595Z,1.13
2022-10-14T04:28:38.276Z,1.15
2022-10-14T04:33:39.675Z,1.42
2022-10-14T04:38:41.015Z,1.25
2022-10-14T04:43:42.362Z,1.35
2022-10-14T04:48:43.702Z,1.33
2022-10-14T04:53:45.118Z,0.75
2022-10-14T04:58:46.503Z,0.70
2022-10-14T05:03:47.835Z,1.00
2022-10-14T05:09:14.261Z,1.15
2022-10-14T05:14:15.807Z,1.35
2022-10-14T05:19:17.259Z,0.85
2022-10-14T05:24:18.782Z,1.08
2022-10-14T05:29:20.139Z,1.63
2022-10-14T05:34:21.539Z,2.22
2022-10-14T05:39:22.897Z,0.70
2022-10-14T05:44:24.373Z,1.63
2022-10-14T05:49:25.739Z,1.33
2022-10-14T05:54:27.409Z,1.40
2022-10-14T05:59:28.744Z,1.13
2022-10-14T06:04:30.182Z,1.65
2022-10-14T06:09:31.571Z,1.58
2022-10-14T06:14:33.081Z,1.15
2022-10-14T06:19:34.426Z,1.75
2022-10-14T06:24:35.792Z,2.15
2022-10-14T06:29:37.148Z,2.10
2022-10-14T06:34:38.610Z,1.98
2022-10-14T06:39:39.962Z,1.33
2022-10-14T06:44:41.286Z,1.23
2022-10-14T06:49:42.687Z,1.50
2022-10-14T06:54:48.176Z,1.42
2022-10-14T06:59:49.835Z,2.00
2022-10-14T07:04:51.176Z,2.42
2022-10-14T07:09:52.533Z,3.92
2022-10-14T07:14:53.930Z,3.30
2022-10-14T07:19:55.310Z,3.40
2022-10-14T07:24:56.650Z,3.20
2022-10-14T07:29:58.080Z,5.45
2022-10-14T07:34:59.434Z,4.25
2022-10-14T07:40:00.771Z,4.32
2022-10-14T07:45:02.173Z,4.78
2022-10-14T07:50:03.905Z,4.95
2022-10-14T07:55:06.149Z,4.15
2022-10-14T08:00:08.285Z,3.35
2022-10-14T08:10:31.039Z,3.00
2022-10-14T08:15:37.392Z,3.72
2022-10-14T08:20:38.786Z,2.85
2022-10-14T08:25:41.714Z,3.78
2022-10-14T08:30:43.144Z,3.58
2022-10-14T08:35:44.853Z,3.60
2022-10-14T08:41:02.228Z,3.28
2022-10-14T08:46:13.847Z,3.22
2022-10-14T08:51:18.726Z,3.10
2022-10-14T08:56:20.645Z,3.67
2022-10-14T09:01:21.931Z,3.70
2022-10-14T09:06:31.598Z,3.20
2022-10-14T09:11:39.735Z,2.88
2022-10-14T09:16:42.154Z,2.90
2022-10-14T09:21:53.330Z,2.63
2022-10-14T09:27:00.055Z,2.83
2022-10-14T09:32:05.290Z,3.13
2022-10-14T09:37:24.650Z,3.65
2022-10-14T09:42:40.619Z,3.67
2022-10-14T09:52:52.274Z,2.83
2022-10-14T09:58:06.590Z,2.83
2022-10-14T10:03:07.971Z,2.42
2022-10-14T10:08:18.719Z,2.58
2022-10-14T10:13:22.306Z,2.28
2022-10-14T10:18:24.306Z,2.33
2022-10-14T10:23:25.736Z,2.75
2022-10-14T10:28:29.259Z,3.00
2022-10-14T10:33:49.170Z,2.25
2022-10-14T10:39:14.850Z,1.95
2022-10-14T10:44:47.301Z,2.10
2022-10-14T10:50:13.555Z,1.65
2022-10-14T10:55:28.655Z,1.15
2022-10-14T11:00:38.914Z,1.43
2022-10-14T11:05:56.616Z,1.75
2022-10-14T11:11:09.758Z,2.17
2022-10-14T11:16:32.031Z,1.80
2022-10-14T11:21:48.901Z,1.90
2022-10-14T11:27:09.005Z,2.78
2022-10-14T11:32:19.714Z,1.52
2022-10-14T11:37:27.288Z,1.35
2022-10-14T11:42:46.895Z,1.70
2022-10-14T11:47:52.986Z,1.35
2022-10-14T11:53:29.785Z,1.40
2022-10-14T11:58:34.954Z,1.10
2022-10-14T12:04:25.896Z,1.10
2022-10-14T12:09:44.190Z,1.52
2022-10-14T12:14:54.921Z,1.05
2022-10-14T12:19:58.183Z,0.95
2022-10-14T12:25:14.335Z,0.50
2022-10-14T12:30:42.477Z,1.08
2022-10-14T12:35:51.494Z,0.80
2022-10-14T12:40:53.384Z,1.42
2022-10-14T12:46:09.063Z,0.80
2022-10-14T12:51:22.766Z,0.47
2022-10-14T12:56:30.631Z,0.77
2022-10-14T13:01:35.519Z,0.50
2022-10-14T13:06:42.156Z,0.30
2022-10-14T13:12:08.931Z,0.35
2022-10-14T13:17:42.698Z,0.52
2022-10-14T13:22:44.154Z,0.95
2022-10-14T13:27:55.930Z,0.30
2022-10-14T13:33:13.075Z,0.10
2022-10-14T13:38:17.399Z,0.30
2022-10-14T13:43:22.963Z,0.38
2022-10-14T13:53:48.911Z,0.20
2022-10-14T13:58:50.291Z,0.30
2022-10-14T14:03:55.656Z,0.20
2022-10-14T14:09:00.125Z,0.20
2022-10-14T14:14:07.858Z,0.30
2022-10-14T14:19:20.015Z,0.80
2022-10-14T14:24:25.681Z,0.55
2022-10-14T14:29:30.976Z,0.20
2022-10-14T14:34:32.526Z,0.20
2022-10-14T14:39:33.872Z,0.32
2022-10-14T14:44:35.821Z,0.10
2022-10-14T14:49:38.075Z,0.10
2022-10-14T14:54:46.965Z,0.13
2022-10-14T15:00:07.529Z,0.10
2022-10-14T15:05:10.575Z,0.20
2022-10-14T15:10:28.086Z,0.20
2022-10-14T15:15:32.729Z,0.28
2022-10-14T15:20:36.965Z,1.95
2022-10-14T15:25:38.459Z,0.20
2022-10-14T15:30:39.794Z,0.30
2022-10-14T15:35:42.203Z,0.30
2022-10-14T15:40:47.961Z,0.50
2022-10-14T15:45:51.741Z,0.20
2022-10-14T15:50:53.134Z,0.20
2022-10-14T15:55:54.619Z,0.40
2022-10-14T16:00:56.040Z,0.10
2022-10-14T16:05:58.238Z,0.20
2022-10-14T16:10:59.723Z,0.38
2022-10-14T16:16:04.010Z,0.20
2022-10-14T16:21:05.618Z,0.50
2022-10-14T16:26:07.042Z,0.28
2022-10-14T16:31:12.686Z,0.20
2022-10-14T16:41:15.992Z,0.10
2022-10-14T16:46:17.367Z,0.30
2022-10-14T16:56:25.021Z,0.22
2022-10-14T17:01:26.925Z,0.10
2022-10-14T17:06:28.330Z,0.10
2022-10-14T17:11:30.102Z,0.47
2022-10-14T17:16:31.485Z,0.10
2022-10-14T17:21:32.909Z,0.45
2022-10-14T17:26:34.651Z,0.22
2022-10-14T17:31:36.006Z,0.30
2022-10-14T17:36:37.595Z,0.13
2022-10-14T17:41:39.007Z,0.30
2022-10-14T17:46:40.362Z,0.57
2022-10-14T17:51:42.238Z,0.30
2022-10-14T17:56:43.611Z,0.32
2022-10-14T18:07:06.321Z,0.75
2022-10-14T18:12:09.464Z,0.43
2022-10-14T18:17:12.110Z,1.50
2022-10-14T18:22:13.472Z,1.33
2022-10-14T18:27:14.893Z,1.90
2022-10-14T18:32:16.576Z,1.02
2022-10-14T18:37:17.957Z,0.55
2022-10-14T18:42:20.927Z,0.75
2022-10-14T18:47:22.582Z,1.40
2022-10-14T18:52:24.546Z,0.65
2022-10-14T18:57:26.105Z,0.60
2022-10-14T19:02:27.609Z,1.10
2022-10-14T19:07:28.965Z,0.63
2022-10-14T19:12:30.353Z,0.93
2022-10-14T19:17:31.726Z,1.23
2022-10-14T19:22:33.742Z,0.20
2022-10-14T19:27:35.119Z,0.35
2022-10-14T19:32:36.499Z,0.40
2022-10-14T19:37:37.895Z,0.57
2022-10-14T19:42:39.260Z,0.95
2022-10-14T19:47:40.617Z,0.28
2022-10-14T19:52:41.990Z,0.95
2022-10-14T19:57:43.386Z,0.50
2022-10-14T20:02:44.775Z,0.93
2022-10-14T20:07:46.612Z,0.50
2022-10-14T20:12:48.000Z,0.20
2022-10-14T20:17:49.373Z,0.30
2022-10-14T20:22:50.746Z,0.38
2022-10-14T20:27:52.350Z,0.20
2022-10-14T20:32:53.798Z,0.45
2022-10-14T20:37:55.187Z,0.30
2022-10-14T20:42:56.740Z,0.32
2022-10-14T20:47:58.134Z,0.30
2022-10-14T20:52:59.511Z,0.20
2022-10-14T20:58:00.874Z,0.15
2022-10-14T21:03:02.244Z,0.20
2022-10-14T21:08:04.830Z,0.10
2022-10-14T21:13:06.184Z,0.20
2022-10-14T21:18:07.588Z,0.50
2022-10-14T21:23:08.959Z,0.13
2022-10-14T21:28:10.778Z,0.30
2022-10-14T21:33:12.191Z,0.50
2022-10-14T21:38:13.575Z,0.60
2022-10-14T21:43:14.964Z,0.55
2022-10-14T21:48:16.363Z,0.10
2022-10-14T21:53:17.770Z,0.20
2022-10-14T21:58:19.133Z,0.32
2022-10-14T22:03:20.613Z,0.70
2022-10-14T22:08:21.985Z,0.30
2022-10-14T22:13:23.564Z,0.40
2022-10-14T22:18:24.950Z,0.30
2022-10-14T22:23:26.377Z,0.40
2022-10-14T22:28:28.119Z,0.35
2022-10-14T22:33:33.698Z,0.38
2022-10-14T22:43:44.864Z,0.32
2022-10-14T22:48:47.643Z,0.20
2022-10-14T22:53:49.007Z,0.30
2022-10-14T22:58:59.194Z,0.30
2022-10-14T23:04:01.225Z,0.38
2022-10-14T23:09:03.562Z,0.20
2022-10-14T23:14:07.315Z,0.20
2022-10-14T23:19:09.144Z,0.40
2022-10-14T23:24:11.671Z,0.10
2022-10-14T23:29:13.054Z,0.10
2022-10-14T23:34:14.421Z,0.10
2022-10-14T23:39:15.814Z,0.10
2022-10-14T23:44:17.167Z,0.10
2022-10-14T23:49:25.875Z,0.25
2022-10-14T23:54:27.522Z,0.10
2022-10-14T23:59:28.870Z,0.13
